sensor_id;sensor_type;location;lat;lon;timestamp;pressure;altitude;pressure_sealevel;temperature;humidity
61324;BME280;47203;48.428;11.974;2023-02-28T00:00:23;97338.72;;;5.55;38.52
61324;BME280;47203;48.428;11.974;2023-02-28T00:02:28;97333.13;;;5.51;38.50
61324;BME280;47203;48.428;11.974;2023-02-28T00:04:32;97339.13;;;5.52;38.59
61324;BME280;47203;48.428;11.974;2023-02-28T00:06:37;97331.53;;;5.50;38.42
61324;BME280;47203;48.428;11.974;2023-02-28T00:08:42;97333.56;;;5.48;38.60
61324;BME280;47203;48.428;11.974;2023-02-28T00:10:49;97334.56;;;5.47;38.57
61324;BME280;47203;48.428;11.974;2023-02-28T00:12:54;97326.72;;;5.47;38.20
61324;BME280;47203;48.428;11.974;2023-02-28T00:14:59;97325.94;;;5.47;38.46
61324;BME280;47203;48.428;11.974;2023-02-28T00:17:03;97323.34;;;5.47;38.41
61324;BME280;47203;48.428;11.974;2023-02-28T00:19:08;97319.94;;;5.46;38.61
61324;BME280;47203;48.428;11.974;2023-02-28T00:21:14;97316.50;;;5.46;38.34
61324;BME280;47203;48.428;11.974;2023-02-28T00:23:19;97320.13;;;5.45;38.22
61324;BME280;47203;48.428;11.974;2023-02-28T00:25:24;97319.56;;;5.42;38.31
61324;BME280;47203;48.428;11.974;2023-02-28T00:27:31;97325.00;;;5.41;38.53
61324;BME280;47203;48.428;11.974;2023-02-28T00:29:38;97318.16;;;5.40;38.27
61324;BME280;47203;48.428;11.974;2023-02-28T00:31:44;97319.19;;;5.39;38.42
61324;BME280;47203;48.428;11.974;2023-02-28T00:33:49;97310.56;;;5.38;38.51
61324;BME280;47203;48.428;11.974;2023-02-28T00:36:01;97306.94;;;5.39;38.30
61324;BME280;47203;48.428;11.974;2023-02-28T00:38:05;97309.31;;;5.41;38.33
61324;BME280;47203;48.428;11.974;2023-02-28T00:40:10;97311.94;;;5.41;38.19
61324;BME280;47203;48.428;11.974;2023-02-28T00:42:15;97306.94;;;5.39;38.44
61324;BME280;47203;48.428;11.974;2023-02-28T00:44:24;97305.09;;;5.40;38.42
61324;BME280;47203;48.428;11.974;2023-02-28T00:46:28;97305.31;;;5.38;38.17
61324;BME280;47203;48.428;11.974;2023-02-28T00:48:33;97299.53;;;5.36;38.33
61324;BME280;47203;48.428;11.974;2023-02-28T00:50:37;97306.78;;;5.34;38.17
61324;BME280;47203;48.428;11.974;2023-02-28T00:52:42;97309.59;;;5.33;38.57
61324;BME280;47203;48.428;11.974;2023-02-28T00:54:48;97314.25;;;5.31;38.32
61324;BME280;47203;48.428;11.974;2023-02-28T00:56:52;97306.41;;;5.31;38.48
61324;BME280;47203;48.428;11.974;2023-02-28T00:58:57;97308.22;;;5.30;38.32
61324;BME280;47203;48.428;11.974;2023-02-28T01:01:04;97313.69;;;5.29;38.52
61324;BME280;47203;48.428;11.974;2023-02-28T01:03:08;97310.25;;;5.28;38.24
61324;BME280;47203;48.428;11.974;2023-02-28T01:05:13;97308.44;;;5.29;38.50
61324;BME280;47203;48.428;11.974;2023-02-28T01:07:19;97307.63;;;5.28;38.20
61324;BME280;47203;48.428;11.974;2023-02-28T01:09:23;97299.59;;;5.30;38.46
61324;BME280;47203;48.428;11.974;2023-02-28T01:11:27;97301.19;;;5.31;38.32
61324;BME280;47203;48.428;11.974;2023-02-28T01:13:32;97301.41;;;5.29;38.32
61324;BME280;47203;48.428;11.974;2023-02-28T01:15:37;97292.56;;;5.30;38.18
61324;BME280;47203;48.428;11.974;2023-02-28T01:17:44;97292.78;;;5.29;38.31
61324;BME280;47203;48.428;11.974;2023-02-28T01:19:49;97303.00;;;5.30;38.18
61324;BME280;47203;48.428;11.974;2023-02-28T01:21:53;97298.00;;;5.29;38.26
61324;BME280;47203;48.428;11.974;2023-02-28T01:23:58;97292.78;;;5.29;38.12
61324;BME280;47203;48.428;11.974;2023-02-28T01:26:05;97289.38;;;5.28;38.11
61324;BME280;47203;48.428;11.974;2023-02-28T01:28:13;97289.16;;;5.30;38.48
61324;BME280;47203;48.428;11.974;2023-02-28T01:30:17;97291.53;;;5.31;38.37
61324;BME280;47203;48.428;11.974;2023-02-28T01:32:22;97289.97;;;5.30;38.38
61324;BME280;47203;48.428;11.974;2023-02-28T01:34:29;97279.53;;;5.30;38.31
61324;BME280;47203;48.428;11.974;2023-02-28T01:36:33;97279.53;;;5.30;38.26
61324;BME280;47203;48.428;11.974;2023-02-28T01:38:38;97283.72;;;5.31;38.19
61324;BME280;47203;48.428;11.974;2023-02-28T01:40:42;97286.53;;;5.30;38.27
61324;BME280;47203;48.428;11.974;2023-02-28T01:42:46;97277.91;;;5.29;38.25
61324;BME280;47203;48.428;11.974;2023-02-28T01:44:58;97278.13;;;5.28;38.14
61324;BME280;47203;48.428;11.974;2023-02-28T01:47:03;97279.13;;;5.27;38.16
61324;BME280;47203;48.428;11.974;2023-02-28T01:49:09;97275.75;;;5.26;38.29
61324;BME280;47203;48.428;11.974;2023-02-28T01:51:20;97286.41;;;5.24;38.08
61324;BME280;47203;48.428;11.974;2023-02-28T01:53:29;97282.56;;;5.27;38.24
61324;BME280;47203;48.428;11.974;2023-02-28T01:55:35;97280.75;;;5.28;38.10
61324;BME280;47203;48.428;11.974;2023-02-28T01:57:40;97279.13;;;5.27;38.06
61324;BME280;47203;48.428;11.974;2023-02-28T01:59:50;97287.97;;;5.25;38.06
61324;BME280;47203;48.428;11.974;2023-02-28T02:01:56;97279.56;;;5.23;38.23
61324;BME280;47203;48.428;11.974;2023-02-28T02:04:02;97284.22;;;5.21;38.09
61324;BME280;47203;48.428;11.974;2023-02-28T02:06:07;97286.22;;;5.19;38.13
61324;BME280;47203;48.428;11.974;2023-02-28T02:08:15;97269.78;;;5.19;38.16
61324;BME280;47203;48.428;11.974;2023-02-28T02:10:21;97272.19;;;5.20;38.42
61324;BME280;47203;48.428;11.974;2023-02-28T02:12:26;97277.19;;;5.22;38.08
61324;BME280;47203;48.428;11.974;2023-02-28T02:14:40;97278.19;;;5.21;38.17
61324;BME280;47203;48.428;11.974;2023-02-28T02:16:53;97272.41;;;5.19;38.40
61324;BME280;47203;48.428;11.974;2023-02-28T02:19:08;97272.41;;;5.19;38.21
61324;BME280;47203;48.428;11.974;2023-02-28T02:21:24;97270.78;;;5.18;38.40
61324;BME280;47203;48.428;11.974;2023-02-28T02:24:00;97269.19;;;5.17;38.38
61324;BME280;47203;48.428;11.974;2023-02-28T02:26:17;97267.41;;;5.17;38.12
61324;BME280;47203;48.428;11.974;2023-02-28T02:28:34;97267.84;;;5.14;38.20
61324;BME280;47203;48.428;11.974;2023-02-28T02:30:46;97262.59;;;5.14;38.53
61324;BME280;47203;48.428;11.974;2023-02-28T02:35:28;97268.25;;;5.11;38.48
61324;BME280;47203;48.428;11.974;2023-02-28T02:37:36;97271.28;;;5.08;38.42
61324;BME280;47203;48.428;11.974;2023-02-28T02:39:45;97270.72;;;5.06;38.37
61324;BME280;47203;48.428;11.974;2023-02-28T02:41:52;97268.31;;;5.04;38.36
61324;BME280;47203;48.428;11.974;2023-02-28T02:43:58;97276.13;;;5.04;38.54
61324;BME280;47203;48.428;11.974;2023-02-28T02:46:08;97272.97;;;5.02;38.25
61324;BME280;47203;48.428;11.974;2023-02-28T02:48:15;97275.56;;;5.02;38.33
61324;BME280;47203;48.428;11.974;2023-02-28T02:50:21;97274.19;;;5.00;38.38
61324;BME280;47203;48.428;11.974;2023-02-28T02:52:34;97269.75;;;5.00;38.60
61324;BME280;47203;48.428;11.974;2023-02-28T02:54:41;97278.78;;;4.98;38.53
61324;BME280;47203;48.428;11.974;2023-02-28T02:56:48;97283.44;;;4.96;38.38
61324;BME280;47203;48.428;11.974;2023-02-28T02:58:54;97282.88;;;4.94;38.35
61324;BME280;47203;48.428;11.974;2023-02-28T03:01:02;97283.09;;;4.92;38.78
61324;BME280;47203;48.428;11.974;2023-02-28T03:03:08;97281.03;;;4.94;38.45
61324;BME280;47203;48.428;11.974;2023-02-28T03:05:15;97283.66;;;4.94;38.53
61324;BME280;47203;48.428;11.974;2023-02-28T03:07:22;97282.03;;;4.93;38.58
61324;BME280;47203;48.428;11.974;2023-02-28T03:09:32;97279.44;;;4.93;38.45
61324;BME280;47203;48.428;11.974;2023-02-28T03:11:37;97283.66;;;4.94;38.79
61324;BME280;47203;48.428;11.974;2023-02-28T03:13:46;97280.03;;;4.95;38.69
61324;BME280;47203;48.428;11.974;2023-02-28T03:15:58;97279.81;;;4.97;38.69
61324;BME280;47203;48.428;11.974;2023-02-28T03:18:10;97280.81;;;4.96;38.69
61324;BME280;47203;48.428;11.974;2023-02-28T03:20:23;97281.84;;;4.95;38.48
61324;BME280;47203;48.428;11.974;2023-02-28T03:22:45;97275.44;;;4.90;38.68
61324;BME280;47203;48.428;11.974;2023-02-28T03:24:56;97274.88;;;4.88;38.48
61324;BME280;47203;48.428;11.974;2023-02-28T03:27:05;97281.91;;;4.88;38.60
61324;BME280;47203;48.428;11.974;2023-02-28T03:29:13;97276.91;;;4.86;38.71
61324;BME280;47203;48.428;11.974;2023-02-28T03:31:21;97280.31;;;4.87;38.57
61324;BME280;47203;48.428;11.974;2023-02-28T03:33:30;97276.91;;;4.86;38.59
61324;BME280;47203;48.428;11.974;2023-02-28T03:35:36;97281.31;;;4.86;38.68
61324;BME280;47203;48.428;11.974;2023-02-28T03:37:43;97285.72;;;4.85;38.42
61324;BME280;47203;48.428;11.974;2023-02-28T03:39:49;97277.91;;;4.85;38.64
61324;BME280;47203;48.428;11.974;2023-02-28T03:42:00;97283.13;;;4.85;38.64
61324;BME280;47203;48.428;11.974;2023-02-28T03:44:07;97282.34;;;4.85;38.63
61324;BME280;47203;48.428;11.974;2023-02-28T03:46:18;97279.50;;;4.86;38.62
61324;BME280;47203;48.428;11.974;2023-02-28T03:48:26;97275.09;;;4.87;38.59
61324;BME280;47203;48.428;11.974;2023-02-28T03:50:35;97273.69;;;4.84;38.67
61324;BME280;47203;48.428;11.974;2023-02-28T03:52:42;97279.13;;;4.83;38.84
61324;BME280;47203;48.428;11.974;2023-02-28T03:54:49;97273.34;;;4.81;38.62
61324;BME280;47203;48.428;11.974;2023-02-28T03:56:56;97276.94;;;4.80;38.75
61324;BME280;47203;48.428;11.974;2023-02-28T03:59:09;97276.94;;;4.80;38.61
61324;BME280;47203;48.428;11.974;2023-02-28T04:01:19;97278.97;;;4.78;38.76
61324;BME280;47203;48.428;11.974;2023-02-28T04:03:25;97284.19;;;4.78;38.62
61324;BME280;47203;48.428;11.974;2023-02-28T04:05:29;97279.19;;;4.76;38.75
61324;BME280;47203;48.428;11.974;2023-02-28T04:07:34;97281.19;;;4.74;38.59
61324;BME280;47203;48.428;11.974;2023-02-28T04:09:38;97274.59;;;4.71;38.68
61324;BME280;47203;48.428;11.974;2023-02-28T04:11:44;97273.00;;;4.70;38.65
61324;BME280;47203;48.428;11.974;2023-02-28T04:13:49;97289.88;;;4.68;38.64
61324;BME280;47203;48.428;11.974;2023-02-28T04:15:56;97287.47;;;4.66;38.92
61324;BME280;47203;48.428;11.974;2023-02-28T04:18:01;97287.69;;;4.65;38.76
61324;BME280;47203;48.428;11.974;2023-02-28T04:20:05;97282.69;;;4.63;38.85
61324;BME280;47203;48.428;11.974;2023-02-28T04:22:11;97289.91;;;4.61;38.67
61324;BME280;47203;48.428;11.974;2023-02-28T04:24:16;97293.75;;;4.59;38.65
61324;BME280;47203;48.428;11.974;2023-02-28T04:26:20;97285.34;;;4.57;38.75
61324;BME280;47203;48.428;11.974;2023-02-28T04:28:25;97294.97;;;4.56;38.83
61324;BME280;47203;48.428;11.974;2023-02-28T04:30:29;97297.78;;;4.54;38.83
61324;BME280;47203;48.428;11.974;2023-02-28T04:32:36;97296.19;;;4.53;38.62
61324;BME280;47203;48.428;11.974;2023-02-28T04:34:41;97305.00;;;4.52;38.67
61324;BME280;47203;48.428;11.974;2023-02-28T04:36:45;97300.81;;;4.51;38.84
61324;BME280;47203;48.428;11.974;2023-02-28T04:39:06;97303.66;;;4.50;38.84
61324;BME280;47203;48.428;11.974;2023-02-28T04:41:11;97294.22;;;4.49;38.76
61324;BME280;47203;48.428;11.974;2023-02-28T04:43:16;97297.81;;;4.48;38.91
61324;BME280;47203;48.428;11.974;2023-02-28T04:45:20;97309.28;;;4.47;38.75
61324;BME280;47203;48.428;11.974;2023-02-28T04:47:24;97304.25;;;4.45;38.94
61324;BME280;47203;48.428;11.974;2023-02-28T04:49:31;97305.84;;;4.46;38.94
61324;BME280;47203;48.428;11.974;2023-02-28T04:51:36;97313.88;;;4.45;38.89
61324;BME280;47203;48.428;11.974;2023-02-28T04:53:40;97303.66;;;4.43;38.80
61324;BME280;47203;48.428;11.974;2023-02-28T04:55:45;97309.09;;;4.42;38.59
61324;BME280;47203;48.428;11.974;2023-02-28T04:57:50;97308.31;;;4.41;38.91
61324;BME280;47203;48.428;11.974;2023-02-28T04:59:54;97300.69;;;4.40;38.99
61324;BME280;47203;48.428;11.974;2023-02-28T05:01:59;97304.31;;;4.39;38.82
61324;BME280;47203;48.428;11.974;2023-02-28T05:04:08;97307.69;;;4.39;38.75
61324;BME280;47203;48.428;11.974;2023-02-28T05:06:16;97308.72;;;4.38;38.93
61324;BME280;47203;48.428;11.974;2023-02-28T05:08:21;97313.94;;;4.38;38.79
61324;BME280;47203;48.428;11.974;2023-02-28T05:10:26;97316.56;;;4.38;38.85
61324;BME280;47203;48.428;11.974;2023-02-28T05:12:31;97318.34;;;4.37;38.93
61324;BME280;47203;48.428;11.974;2023-02-28T05:14:35;97319.34;;;4.36;38.90
61324;BME280;47203;48.428;11.974;2023-02-28T05:16:40;97321.94;;;4.36;38.76
61324;BME280;47203;48.428;11.974;2023-02-28T05:18:44;97324.56;;;4.36;38.86
61324;BME280;47203;48.428;11.974;2023-02-28T05:20:49;97316.16;;;4.34;38.99
61324;BME280;47203;48.428;11.974;2023-02-28T05:22:56;97316.38;;;4.33;38.85
61324;BME280;47203;48.428;11.974;2023-02-28T05:25:01;97314.97;;;4.30;38.94
61324;BME280;47203;48.428;11.974;2023-02-28T05:27:06;97322.00;;;4.30;38.96
61324;BME280;47203;48.428;11.974;2023-02-28T05:29:10;97315.19;;;4.29;38.74
61324;BME280;47203;48.428;11.974;2023-02-28T05:31:15;97316.19;;;4.28;38.83
61324;BME280;47203;48.428;11.974;2023-02-28T05:33:19;97323.81;;;4.29;38.92
61324;BME280;47203;48.428;11.974;2023-02-28T05:35:24;97325.59;;;4.29;38.86
61324;BME280;47203;48.428;11.974;2023-02-28T05:37:28;97317.00;;;4.28;39.05
61324;BME280;47203;48.428;11.974;2023-02-28T05:39:35;97324.81;;;4.28;39.03
61324;BME280;47203;48.428;11.974;2023-02-28T05:41:40;97328.41;;;4.27;38.88
61324;BME280;47203;48.428;11.974;2023-02-28T05:43:45;97331.81;;;4.28;38.89
61324;BME280;47203;48.428;11.974;2023-02-28T05:45:50;97333.41;;;4.29;38.79
61324;BME280;47203;48.428;11.974;2023-02-28T05:47:54;97330.03;;;4.28;38.87
61324;BME280;47203;48.428;11.974;2023-02-28T05:49:59;97332.03;;;4.26;38.84
61324;BME280;47203;48.428;11.974;2023-02-28T05:52:04;97331.22;;;4.26;38.73
61324;BME280;47203;48.428;11.974;2023-02-28T05:54:08;97328.06;;;4.24;38.85
61324;BME280;47203;48.428;11.974;2023-02-28T05:56:16;97330.66;;;4.24;39.02
61324;BME280;47203;48.428;11.974;2023-02-28T05:58:21;97337.66;;;4.23;38.84
61324;BME280;47203;48.428;11.974;2023-02-28T06:00:26;97333.47;;;4.22;39.03
61324;BME280;47203;48.428;11.974;2023-02-28T06:02:31;97333.47;;;4.22;38.95
61324;BME280;47203;48.428;11.974;2023-02-28T06:04:35;97339.47;;;4.23;38.84
61324;BME280;47203;48.428;11.974;2023-02-28T06:06:42;97339.47;;;4.23;38.93
61324;BME280;47203;48.428;11.974;2023-02-28T06:08:46;97344.69;;;4.23;38.98
61324;BME280;47203;48.428;11.974;2023-02-28T06:10:51;97343.91;;;4.22;39.00
61324;BME280;47203;48.428;11.974;2023-02-28T06:12:58;97341.50;;;4.21;39.04
61324;BME280;47203;48.428;11.974;2023-02-28T06:15:04;97346.72;;;4.21;39.02
61324;BME280;47203;48.428;11.974;2023-02-28T06:17:08;97345.09;;;4.19;38.84
61324;BME280;47203;48.428;11.974;2023-02-28T06:19:13;97349.31;;;4.21;38.91
61324;BME280;47203;48.428;11.974;2023-02-28T06:21:18;97348.28;;;4.22;38.99
61324;BME280;47203;48.428;11.974;2023-02-28T06:23:22;97352.50;;;4.23;38.87
61324;BME280;47203;48.428;11.974;2023-02-28T06:25:27;97341.06;;;4.24;39.15
61324;BME280;47203;48.428;11.974;2023-02-28T06:27:32;97358.28;;;4.25;39.05
61324;BME280;47203;48.428;11.974;2023-02-28T06:29:39;97355.47;;;4.26;39.04
61324;BME280;47203;48.428;11.974;2023-02-28T06:31:44;97353.69;;;4.27;39.15
61324;BME280;47203;48.428;11.974;2023-02-28T06:33:49;97355.09;;;4.29;39.17
61324;BME280;47203;48.428;11.974;2023-02-28T06:35:53;97359.47;;;4.29;39.06
61324;BME280;47203;48.428;11.974;2023-02-28T06:37:58;97361.88;;;4.30;39.02
61324;BME280;47203;48.428;11.974;2023-02-28T06:40:02;97368.69;;;4.31;39.03
61324;BME280;47203;48.428;11.974;2023-02-28T06:42:08;97364.28;;;4.32;39.10
61324;BME280;47203;48.428;11.974;2023-02-28T06:44:13;97371.31;;;4.31;39.03
61324;BME280;47203;48.428;11.974;2023-02-28T06:46:20;97371.66;;;4.35;38.94
61324;BME280;47203;48.428;11.974;2023-02-28T06:48:25;97377.50;;;4.37;39.10
61324;BME280;47203;48.428;11.974;2023-02-28T06:50:30;97383.28;;;4.39;39.05
61324;BME280;47203;48.428;11.974;2023-02-28T06:52:34;97382.66;;;4.44;38.95
61324;BME280;47203;48.428;11.974;2023-02-28T06:54:40;97372.63;;;4.47;39.15
61324;BME280;47203;48.428;11.974;2023-02-28T06:56:44;97379.03;;;4.51;39.15
61324;BME280;47203;48.428;11.974;2023-02-28T06:58:49;97387.00;;;4.57;39.03
61324;BME280;47203;48.428;11.974;2023-02-28T07:00:54;97384.59;;;4.62;39.02
61324;BME280;47203;48.428;11.974;2023-02-28T07:03:01;97385.56;;;4.67;39.26
61324;BME280;47203;48.428;11.974;2023-02-28T07:05:05;97383.13;;;4.72;39.25
61324;BME280;47203;48.428;11.974;2023-02-28T07:07:10;97378.28;;;4.76;39.05
61324;BME280;47203;48.428;11.974;2023-02-28T07:09:15;97379.25;;;4.82;39.18
61324;BME280;47203;48.428;11.974;2023-02-28T07:11:20;97372.59;;;4.86;39.13
61324;BME280;47203;48.428;11.974;2023-02-28T07:13:27;97377.78;;;4.93;39.02
61324;BME280;47203;48.428;11.974;2023-02-28T07:15:31;97376.13;;;4.98;39.03
61324;BME280;47203;48.428;11.974;2023-02-28T07:17:39;97377.31;;;5.02;39.21
61324;BME280;47203;48.428;11.974;2023-02-28T07:19:47;97378.47;;;5.06;39.00
61324;BME280;47203;48.428;11.974;2023-02-28T07:21:52;97386.47;;;5.12;38.94
61324;BME280;47203;48.428;11.974;2023-02-28T07:23:56;97377.00;;;5.17;39.21
61324;BME280;47203;48.428;11.974;2023-02-28T07:26:01;97380.16;;;5.26;38.96
61324;BME280;47203;48.428;11.974;2023-02-28T07:28:06;97383.28;;;5.35;39.12
61324;BME280;47203;48.428;11.974;2023-02-28T07:30:10;97374.59;;;5.41;39.12
61324;BME280;47203;48.428;11.974;2023-02-28T07:32:15;97378.94;;;5.47;39.07
61324;BME280;47203;48.428;11.974;2023-02-28T07:34:20;97377.69;;;5.56;39.11
61324;BME280;47203;48.428;11.974;2023-02-28T07:36:27;97380.00;;;5.65;38.99
61324;BME280;47203;48.428;11.974;2023-02-28T07:38:33;97385.94;;;5.72;38.95
61324;BME280;47203;48.428;11.974;2023-02-28T07:40:38;97374.63;;;5.78;38.91
61324;BME280;47203;48.428;11.974;2023-02-28T07:42:43;97380.38;;;5.87;39.17
61324;BME280;47203;48.428;11.974;2023-02-28T07:44:51;97380.31;;;5.93;38.89
61324;BME280;47203;48.428;11.974;2023-02-28T07:46:55;97387.69;;;6.03;38.90
61324;BME280;47203;48.428;11.974;2023-02-28T07:49:00;97388.19;;;6.12;39.02
61324;BME280;47203;48.428;11.974;2023-02-28T07:51:04;97391.31;;;6.21;38.96
61324;BME280;47203;48.428;11.974;2023-02-28T07:53:11;97392.38;;;6.32;38.83
61324;BME280;47203;48.428;11.974;2023-02-28T07:55:16;97397.31;;;6.40;38.83
61324;BME280;47203;48.428;11.974;2023-02-28T07:57:20;97386.53;;;6.48;38.86
61324;BME280;47203;48.428;11.974;2023-02-28T07:59:28;97389.63;;;6.57;38.68
61324;BME280;47203;48.428;11.974;2023-02-28T08:01:32;97399.25;;;6.63;38.69
61324;BME280;47203;48.428;11.974;2023-02-28T08:03:37;97394.34;;;6.67;38.73
61324;BME280;47203;48.428;11.974;2023-02-28T08:05:42;97391.88;;;6.72;38.85
61324;BME280;47203;48.428;11.974;2023-02-28T08:07:46;97393.38;;;6.79;38.52
61324;BME280;47203;48.428;11.974;2023-02-28T08:09:55;97388.25;;;6.85;38.67
61324;BME280;47203;48.428;11.974;2023-02-28T08:12:00;97377.69;;;6.91;38.54
61324;BME280;47203;48.428;11.974;2023-02-28T08:14:04;97389.09;;;6.97;38.57
61324;BME280;47203;48.428;11.974;2023-02-28T08:16:09;97391.59;;;7.04;38.54
61324;BME280;47203;48.428;11.974;2023-02-28T08:18:13;97391.50;;;7.10;38.44
61324;BME280;47203;48.428;11.974;2023-02-28T08:20:17;97386.75;;;7.19;38.53
61324;BME280;47203;48.428;11.974;2023-02-28T08:22:22;97384.03;;;7.26;38.39
61324;BME280;47203;48.428;11.974;2023-02-28T08:24:26;97390.16;;;7.31;38.22
61324;BME280;47203;48.428;11.974;2023-02-28T08:26:34;97395.75;;;7.35;38.35
61324;BME280;47203;48.428;11.974;2023-02-28T08:28:38;97390.84;;;7.39;38.27
61324;BME280;47203;48.428;11.974;2023-02-28T08:30:43;97395.66;;;7.42;38.54
61324;BME280;47203;48.428;11.974;2023-02-28T08:32:48;97395.78;;;7.47;38.43
61324;BME280;47203;48.428;11.974;2023-02-28T08:34:53;97389.06;;;7.51;38.37
61324;BME280;47203;48.428;11.974;2023-02-28T08:36:57;97398.06;;;7.55;38.40
61324;BME280;47203;48.428;11.974;2023-02-28T08:39:02;97392.13;;;7.60;38.20
61324;BME280;47203;48.428;11.974;2023-02-28T08:41:07;97398.53;;;7.64;38.23
61324;BME280;47203;48.428;11.974;2023-02-28T08:43:14;97387.13;;;7.70;38.22
61324;BME280;47203;48.428;11.974;2023-02-28T08:45:18;97402.38;;;7.73;38.14
61324;BME280;47203;48.428;11.974;2023-02-28T08:47:23;97397.47;;;7.77;38.21
61324;BME280;47203;48.428;11.974;2023-02-28T08:49:28;97389.72;;;7.82;38.22
61324;BME280;47203;48.428;11.974;2023-02-28T08:51:33;97402.97;;;7.87;38.25
61324;BME280;47203;48.428;11.974;2023-02-28T08:53:38;97395.41;;;7.91;38.06
61324;BME280;47203;48.428;11.974;2023-02-28T08:55:42;97398.94;;;7.96;37.95
61324;BME280;47203;48.428;11.974;2023-02-28T08:57:47;97401.66;;;8.01;38.01
61324;BME280;47203;48.428;11.974;2023-02-28T08:59:55;97401.78;;;8.07;38.05
61324;BME280;47203;48.428;11.974;2023-02-28T09:01:59;97405.53;;;8.11;37.99
61324;BME280;47203;48.428;11.974;2023-02-28T09:04:04;97408.25;;;8.16;37.96
61324;BME280;47203;48.428;11.974;2023-02-28T09:06:10;97417.03;;;8.21;37.90
61324;BME280;47203;48.428;11.974;2023-02-28T09:08:14;97418.16;;;8.26;38.14
61324;BME280;47203;48.428;11.974;2023-02-28T09:10:19;97421.09;;;8.29;37.82
61324;BME280;47203;48.428;11.974;2023-02-28T09:12:24;97413.34;;;8.34;38.05
61324;BME280;47203;48.428;11.974;2023-02-28T09:14:29;97420.28;;;8.41;37.82
61324;BME280;47203;48.428;11.974;2023-02-28T09:16:36;97428.84;;;8.48;38.05
61324;BME280;47203;48.428;11.974;2023-02-28T09:18:40;97423.47;;;8.54;37.88
61324;BME280;47203;48.428;11.974;2023-02-28T09:20:45;97425.16;;;8.61;37.96
61324;BME280;47203;48.428;11.974;2023-02-28T09:22:49;97419.78;;;8.67;37.82
61324;BME280;47203;48.428;11.974;2023-02-28T09:24:54;97420.66;;;8.73;38.01
61324;BME280;47203;48.428;11.974;2023-02-28T09:26:58;97418.44;;;8.82;38.21
61324;BME280;47203;48.428;11.974;2023-02-28T09:29:06;97418.44;;;8.94;37.89
61324;BME280;47203;48.428;11.974;2023-02-28T09:31:11;97416.75;;;9.04;37.96
61324;BME280;47203;48.428;11.974;2023-02-28T09:33:19;97422.66;;;9.12;38.06
61324;BME280;47203;48.428;11.974;2023-02-28T09:35:24;97424.44;;;9.23;37.86
61324;BME280;47203;48.428;11.974;2023-02-28T09:37:29;97428.00;;;9.34;37.70
61324;BME280;47203;48.428;11.974;2023-02-28T09:39:33;97429.59;;;9.69;37.73
61324;BME280;47203;48.428;11.974;2023-02-28T09:41:38;97433.13;;;10.13;36.94
61324;BME280;47203;48.428;11.974;2023-02-28T09:43:50;97440.88;;;10.64;36.72
61324;BME280;47203;48.428;11.974;2023-02-28T09:45:56;97443.91;;;11.06;36.72
61324;BME280;47203;48.428;11.974;2023-02-28T09:48:04;97436.63;;;11.18;36.02
61324;BME280;47203;48.428;11.974;2023-02-28T09:50:16;97438.75;;;11.16;36.17
61324;BME280;47203;48.428;11.974;2023-02-28T09:52:24;97443.91;;;11.06;36.09
61324;BME280;47203;48.428;11.974;2023-02-28T09:54:32;97443.25;;;10.93;36.17
61324;BME280;47203;48.428;11.974;2023-02-28T09:56:37;97441.06;;;10.85;36.33
61324;BME280;47203;48.428;11.974;2023-02-28T09:58:44;97450.44;;;10.76;36.46
61324;BME280;47203;48.428;11.974;2023-02-28T10:00:54;97445.38;;;10.69;36.64
61324;BME280;47203;48.428;11.974;2023-02-28T10:03:05;97452.97;;;10.65;36.73
61324;BME280;47203;48.428;11.974;2023-02-28T10:05:11;97455.56;;;10.60;36.98
61324;BME280;47203;48.428;11.974;2023-02-28T10:07:25;97458.44;;;10.59;36.83
61324;BME280;47203;48.428;11.974;2023-02-28T10:09:33;97463.13;;;10.57;36.76
61324;BME280;47203;48.428;11.974;2023-02-28T10:11:38;97457.31;;;10.55;36.68
61324;BME280;47203;48.428;11.974;2023-02-28T10:13:50;97458.59;;;10.52;36.83
61324;BME280;47203;48.428;11.974;2023-02-28T10:15:58;97460.94;;;10.48;36.94
61324;BME280;47203;48.428;11.974;2023-02-28T10:18:06;97461.13;;;10.42;36.64
61324;BME280;47203;48.428;11.974;2023-02-28T10:20:15;97467.66;;;10.39;37.00
61324;BME280;47203;48.428;11.974;2023-02-28T10:22:25;97457.63;;;10.36;37.09
61324;BME280;47203;48.428;11.974;2023-02-28T10:24:32;97455.44;;;10.33;37.27
61324;BME280;47203;48.428;11.974;2023-02-28T10:26:38;97465.75;;;10.35;37.06
61324;BME280;47203;48.428;11.974;2023-02-28T10:28:45;97453.16;;;10.37;37.28
61324;BME280;47203;48.428;11.974;2023-02-28T10:30:51;97452.94;;;10.38;37.10
61324;BME280;47203;48.428;11.974;2023-02-28T10:32:55;97460.56;;;10.40;37.27
61324;BME280;47203;48.428;11.974;2023-02-28T10:35:01;97461.59;;;10.39;37.18
61324;BME280;47203;48.428;11.974;2023-02-28T10:37:10;97459.22;;;10.37;37.50
61324;BME280;47203;48.428;11.974;2023-02-28T10:41:39;97460.81;;;10.38;37.11
61324;BME280;47203;48.428;11.974;2023-02-28T10:43:46;97454.00;;;10.42;37.21
61324;BME280;47203;48.428;11.974;2023-02-28T10:46:01;97468.53;;;10.45;37.34
61324;BME280;47203;48.428;11.974;2023-02-28T10:48:24;97464.59;;;10.47;37.50
61324;BME280;47203;48.428;11.974;2023-02-28T10:50:34;97456.75;;;10.53;37.20
61324;BME280;47203;48.428;11.974;2023-02-28T10:52:39;97463.94;;;10.57;37.08
61324;BME280;47203;48.428;11.974;2023-02-28T10:54:44;97455.31;;;10.62;36.94
61324;BME280;47203;48.428;11.974;2023-02-28T10:59:26;97466.13;;;10.65;37.37
61324;BME280;47203;48.428;11.974;2023-02-28T11:01:36;97460.38;;;10.69;37.17
61324;BME280;47203;48.428;11.974;2023-02-28T11:03:41;97455.41;;;10.72;37.20
61324;BME280;47203;48.428;11.974;2023-02-28T11:05:45;97459.41;;;10.75;37.31
61324;BME280;47203;48.428;11.974;2023-02-28T11:07:51;97453.88;;;10.76;37.32
61324;BME280;47203;48.428;11.974;2023-02-28T11:09:56;97451.53;;;10.80;37.53
61324;BME280;47203;48.428;11.974;2023-02-28T11:12:01;97465.81;;;10.84;36.98
61324;BME280;47203;48.428;11.974;2023-02-28T11:14:06;97469.56;;;10.88;36.91
61324;BME280;47203;48.428;11.974;2023-02-28T11:16:30;97462.75;;;10.92;36.77